sensor_id;sensor_type;location;lat;lon;timestamp;P1;durP1;ratioP1;P2;durP2;ratioP2
3278;SDS011;1651;50.940;6.888;2023-06-24T09:38:35;7.30;;;5.07;;
3278;SDS011;1651;50.940;6.888;2023-06-24T09:41:02;5.00;;;4.60;;
3278;SDS011;1651;50.940;6.888;2023-06-24T09:43:29;4.73;;;4.33;;
3278;SDS011;1651;50.940;6.888;2023-06-24T09:45:55;6.23;;;4.70;;
3278;SDS011;1651;50.940;6.888;2023-06-24T09:48:24;6.60;;;4.57;;
3278;SDS011;1651;50.940;6.888;2023-06-24T09:50:49;7.00;;;4.50;;
3278;SDS011;1651;50.940;6.888;2023-06-24T09:53:17;8.17;;;5.70;;
3278;SDS011;1651;50.940;6.888;2023-06-24T09:55:44;6.40;;;5.13;;
3278;SDS011;1651;50.940;6.888;2023-06-24T09:58:13;4.90;;;4.40;;
3278;SDS011;1651;50.940;6.888;2023-06-24T10:00:39;5.87;;;5.13;;
3278;SDS011;1651;50.940;6.888;2023-06-24T10:03:05;5.87;;;4.90;;
3278;SDS011;1651;50.940;6.888;2023-06-24T10:05:31;9.20;;;5.20;;
3278;SDS011;1651;50.940;6.888;2023-06-24T10:07:57;5.70;;;5.20;;
3278;SDS011;1651;50.940;6.888;2023-06-24T10:10:23;5.93;;;4.53;;
3278;SDS011;1651;50.940;6.888;2023-06-24T10:12:49;5.53;;;4.93;;
3278;SDS011;1651;50.940;6.888;2023-06-24T10:15:15;6.27;;;4.10;;
3278;SDS011;1651;50.940;6.888;2023-06-24T10:17:42;6.07;;;5.10;;
3278;SDS011;1651;50.940;6.888;2023-06-24T10:20:08;4.90;;;4.50;;
3278;SDS011;1651;50.940;6.888;2023-06-24T10:22:34;4.57;;;4.17;;
3278;SDS011;1651;50.940;6.888;2023-06-24T10:25:01;6.83;;;4.20;;
3278;SDS011;1651;50.940;6.888;2023-06-24T10:27:27;4.23;;;3.83;;
3278;SDS011;1651;50.940;6.888;2023-06-24T10:29:57;6.13;;;3.70;;
3278;SDS011;1651;50.940;6.888;2023-06-24T10:32:27;3.90;;;3.33;;
3278;SDS011;1651;50.940;6.888;2023-06-24T10:35:04;3.27;;;3.07;;
3278;SDS011;1651;50.940;6.888;2023-06-24T10:37:31;5.30;;;3.87;;
3278;SDS011;1651;50.940;6.888;2023-06-24T10:40:01;2.70;;;2.50;;
3278;SDS011;1651;50.940;6.888;2023-06-24T10:42:40;3.30;;;3.10;;
3278;SDS011;1651;50.940;6.888;2023-06-24T10:47:37;3.90;;;3.27;;
3278;SDS011;1651;50.940;6.888;2023-06-24T10:50:27;6.33;;;2.90;;
3278;SDS011;1651;50.940;6.888;2023-06-24T10:52:53;2.97;;;2.77;;
3278;SDS011;1651;50.940;6.888;2023-06-24T10:55:23;3.60;;;3.30;;
3278;SDS011;1651;50.940;6.888;2023-06-24T10:57:50;3.50;;;3.30;;
3278;SDS011;1651;50.940;6.888;2023-06-24T11:00:16;2.93;;;2.63;;
3278;SDS011;1651;50.940;6.888;2023-06-24T11:02:43;5.37;;;3.20;;
3278;SDS011;1651;50.940;6.888;2023-06-24T11:05:10;3.47;;;3.17;;
3278;SDS011;1651;50.940;6.888;2023-06-24T11:07:39;4.20;;;3.80;;
3278;SDS011;1651;50.940;6.888;2023-06-24T11:12:35;6.33;;;3.50;;
3278;SDS011;1651;50.940;6.888;2023-06-24T11:15:05;4.73;;;4.23;;
3278;SDS011;1651;50.940;6.888;2023-06-24T11:17:32;3.93;;;3.43;;
3278;SDS011;1651;50.940;6.888;2023-06-24T11:19:58;4.33;;;3.93;;
3278;SDS011;1651;50.940;6.888;2023-06-24T11:22:24;4.20;;;3.33;;
3278;SDS011;1651;50.940;6.888;2023-06-24T11:24:51;5.77;;;3.40;;
3278;SDS011;1651;50.940;6.888;2023-06-24T11:27:23;7.50;;;4.30;;
3278;SDS011;1651;50.940;6.888;2023-06-24T11:29:51;4.77;;;4.30;;
3278;SDS011;1651;50.940;6.888;2023-06-24T11:32:17;4.23;;;3.77;;
3278;SDS011;1651;50.940;6.888;2023-06-24T11:34:43;3.50;;;3.20;;
3278;SDS011;1651;50.940;6.888;2023-06-24T11:37:10;6.73;;;3.40;;
3278;SDS011;1651;50.940;6.888;2023-06-24T11:39:36;4.60;;;4.20;;
3278;SDS011;1651;50.940;6.888;2023-06-24T11:42:02;6.10;;;3.60;;
3278;SDS011;1651;50.940;6.888;2023-06-24T11:44:28;5.73;;;4.00;;
3278;SDS011;1651;50.940;6.888;2023-06-24T11:47:04;4.77;;;4.03;;
3278;SDS011;1651;50.940;6.888;2023-06-24T11:49:30;4.23;;;3.40;;
3278;SDS011;1651;50.940;6.888;2023-06-24T11:51:56;8.23;;;3.90;;
3278;SDS011;1651;50.940;6.888;2023-06-24T11:54:22;5.00;;;3.70;;
3278;SDS011;1651;50.940;6.888;2023-06-24T11:56:52;5.27;;;3.83;;
3278;SDS011;1651;50.940;6.888;2023-06-24T11:59:19;5.10;;;4.10;;
3278;SDS011;1651;50.940;6.888;2023-06-24T12:01:51;5.40;;;3.30;;
3278;SDS011;1651;50.940;6.888;2023-06-24T12:04:18;6.40;;;3.73;;
3278;SDS011;1651;50.940;6.888;2023-06-24T12:06:44;13.40;;;4.73;;
3278;SDS011;1651;50.940;6.888;2023-06-24T12:09:10;7.13;;;3.80;;
3278;SDS011;1651;50.940;6.888;2023-06-24T12:11:37;5.67;;;3.93;;
3278;SDS011;1651;50.940;6.888;2023-06-24T12:14:03;5.50;;;4.00;;
3278;SDS011;1651;50.940;6.888;2023-06-24T12:16:29;6.30;;;3.73;;
3278;SDS011;1651;50.940;6.888;2023-06-24T12:18:55;5.50;;;4.23;;
3278;SDS011;1651;50.940;6.888;2023-06-24T12:21:21;5.10;;;3.90;;
3278;SDS011;1651;50.940;6.888;2023-06-24T12:23:47;6.50;;;3.43;;
3278;SDS011;1651;50.940;6.888;2023-06-24T12:26:13;6.13;;;4.73;;
3278;SDS011;1651;50.940;6.888;2023-06-24T12:28:40;7.93;;;3.90;;
3278;SDS011;1651;50.940;6.888;2023-06-24T12:31:06;4.70;;;3.63;;
3278;SDS011;1651;50.940;6.888;2023-06-24T12:33:32;4.50;;;4.10;;
3278;SDS011;1651;50.940;6.888;2023-06-24T12:35:58;6.50;;;3.73;;
3278;SDS011;1651;50.940;6.888;2023-06-24T12:38:24;4.93;;;4.30;;
3278;SDS011;1651;50.940;6.888;2023-06-24T12:40:50;4.60;;;3.40;;
3278;SDS011;1651;50.940;6.888;2023-06-24T12:43:18;4.37;;;3.97;;
3278;SDS011;1651;50.940;6.888;2023-06-24T12:45:44;4.10;;;3.67;;
3278;SDS011;1651;50.940;6.888;2023-06-24T12:48:13;4.70;;;4.07;;
3278;SDS011;1651;50.940;6.888;2023-06-24T12:50:39;5.93;;;5.37;;
3278;SDS011;1651;50.940;6.888;2023-06-24T12:53:08;6.10;;;3.73;;
3278;SDS011;1651;50.940;6.888;2023-06-24T12:55:36;3.80;;;3.20;;
3278;SDS011;1651;50.940;6.888;2023-06-24T12:58:04;8.23;;;3.73;;
3278;SDS011;1651;50.940;6.888;2023-06-24T13:00:30;5.60;;;3.83;;
3278;SDS011;1651;50.940;6.888;2023-06-24T13:02:59;6.20;;;4.40;;
3278;SDS011;1651;50.940;6.888;2023-06-24T13:05:36;4.57;;;3.90;;
3278;SDS011;1651;50.940;6.888;2023-06-24T13:08:02;6.10;;;3.87;;
3278;SDS011;1651;50.940;6.888;2023-06-24T13:10:31;4.70;;;4.00;;
3278;SDS011;1651;50.940;6.888;2023-06-24T13:13:03;4.90;;;3.43;;
3278;SDS011;1651;50.940;6.888;2023-06-24T13:15:35;5.27;;;4.30;;
3278;SDS011;1651;50.940;6.888;2023-06-24T13:18:06;4.17;;;3.33;;
3278;SDS011;1651;50.940;6.888;2023-06-24T13:20:35;6.63;;;4.20;;
3278;SDS011;1651;50.940;6.888;2023-06-24T13:23:01;3.80;;;3.13;;
3278;SDS011;1651;50.940;6.888;2023-06-24T13:25:27;5.03;;;3.83;;
3278;SDS011;1651;50.940;6.888;2023-06-24T13:27:53;4.07;;;3.67;;
3278;SDS011;1651;50.940;6.888;2023-06-24T13:30:19;3.90;;;3.53;;
3278;SDS011;1651;50.940;6.888;2023-06-24T13:32:46;6.70;;;4.00;;
3278;SDS011;1651;50.940;6.888;2023-06-24T13:35:15;4.00;;;3.60;;
3278;SDS011;1651;50.940;6.888;2023-06-24T13:37:43;4.07;;;3.67;;
3278;SDS011;1651;50.940;6.888;2023-06-24T13:40:11;7.50;;;3.20;;
3278;SDS011;1651;50.940;6.888;2023-06-24T13:42:37;6.13;;;3.83;;
3278;SDS011;1651;50.940;6.888;2023-06-24T13:45:06;4.47;;;3.87;;
3278;SDS011;1651;50.940;6.888;2023-06-24T13:47:38;6.23;;;4.73;;
3278;SDS011;1651;50.940;6.888;2023-06-24T13:50:06;5.47;;;3.80;;
3278;SDS011;1651;50.940;6.888;2023-06-24T13:52:41;5.63;;;3.43;;
3278;SDS011;1651;50.940;6.888;2023-06-24T13:55:09;3.80;;;3.33;;
3278;SDS011;1651;50.940;6.888;2023-06-24T13:57:35;3.97;;;3.10;;
3278;SDS011;1651;50.940;6.888;2023-06-24T14:00:01;4.67;;;3.43;;
3278;SDS011;1651;50.940;6.888;2023-06-24T14:02:27;4.57;;;2.90;;
3278;SDS011;1651;50.940;6.888;2023-06-24T14:04:53;3.53;;;3.23;;
3278;SDS011;1651;50.940;6.888;2023-06-24T14:07:24;4.73;;;3.17;;
3278;SDS011;1651;50.940;6.888;2023-06-24T14:09:51;3.00;;;2.60;;
3278;SDS011;1651;50.940;6.888;2023-06-24T14:12:39;5.43;;;3.00;;
3278;SDS011;1651;50.940;6.888;2023-06-24T14:15:07;4.50;;;3.60;;
3278;SDS011;1651;50.940;6.888;2023-06-24T14:17:33;3.20;;;2.63;;
3278;SDS011;1651;50.940;6.888;2023-06-24T14:19:59;4.97;;;3.53;;
3278;SDS011;1651;50.940;6.888;2023-06-24T14:22:25;4.47;;;2.93;;
3278;SDS011;1651;50.940;6.888;2023-06-24T14:24:51;3.23;;;2.93;;
3278;SDS011;1651;50.940;6.888;2023-06-24T14:27:17;4.33;;;2.80;;
3278;SDS011;1651;50.940;6.888;2023-06-24T14:29:43;4.83;;;2.93;;
3278;SDS011;1651;50.940;6.888;2023-06-24T14:32:12;4.10;;;2.43;;
3278;SDS011;1651;50.940;6.888;2023-06-24T14:34:38;3.30;;;2.93;;
3278;SDS011;1651;50.940;6.888;2023-06-24T14:37:04;4.93;;;2.67;;
3278;SDS011;1651;50.940;6.888;2023-06-24T14:39:30;4.67;;;3.20;;
3278;SDS011;1651;50.940;6.888;2023-06-24T14:41:56;5.43;;;3.20;;
3278;SDS011;1651;50.940;6.888;2023-06-24T14:44:23;3.70;;;3.40;;
3278;SDS011;1651;50.940;6.888;2023-06-24T14:46:49;5.20;;;2.97;;
3278;SDS011;1651;50.940;6.888;2023-06-24T14:49:15;3.30;;;2.70;;
3278;SDS011;1651;50.940;6.888;2023-06-24T14:51:42;3.57;;;3.17;;
3278;SDS011;1651;50.940;6.888;2023-06-24T14:54:08;2.93;;;2.50;;
3278;SDS011;1651;50.940;6.888;2023-06-24T14:56:34;3.27;;;2.87;;
3278;SDS011;1651;50.940;6.888;2023-06-24T14:59:00;3.30;;;3.00;;
3278;SDS011;1651;50.940;6.888;2023-06-24T15:01:26;2.63;;;2.30;;
3278;SDS011;1651;50.940;6.888;2023-06-24T15:03:52;3.73;;;2.90;;
3278;SDS011;1651;50.940;6.888;2023-06-24T15:06:18;2.93;;;2.70;;
3278;SDS011;1651;50.940;6.888;2023-06-24T15:08:44;2.60;;;2.40;;
3278;SDS011;1651;50.940;6.888;2023-06-24T15:11:13;2.90;;;2.70;;
3278;SDS011;1651;50.940;6.888;2023-06-24T15:13:39;2.90;;;2.60;;
3278;SDS011;1651;50.940;6.888;2023-06-24T15:16:05;4.90;;;2.93;;
3278;SDS011;1651;50.940;6.888;2023-06-24T15:18:31;2.80;;;2.40;;
3278;SDS011;1651;50.940;6.888;2023-06-24T15:20:58;3.60;;;2.30;;
3278;SDS011;1651;50.940;6.888;2023-06-24T15:23:25;4.10;;;2.70;;
3278;SDS011;1651;50.940;6.888;2023-06-24T15:25:52;3.03;;;2.83;;
3278;SDS011;1651;50.940;6.888;2023-06-24T15:28:20;4.10;;;2.80;;
3278;SDS011;1651;50.940;6.888;2023-06-24T15:30:49;3.30;;;2.93;;
3278;SDS011;1651;50.940;6.888;2023-06-24T15:33:17;3.70;;;2.73;;
3278;SDS011;1651;50.940;6.888;2023-06-24T15:35:45;2.57;;;2.30;;
3278;SDS011;1651;50.940;6.888;2023-06-24T15:38:14;3.40;;;2.57;;
3278;SDS011;1651;50.940;6.888;2023-06-24T15:40:44;4.93;;;2.40;;
3278;SDS011;1651;50.940;6.888;2023-06-24T15:43:10;3.93;;;2.47;;
3278;SDS011;1651;50.940;6.888;2023-06-24T15:45:36;2.47;;;2.20;;
3278;SDS011;1651;50.940;6.888;2023-06-24T15:48:05;2.20;;;2.00;;
3278;SDS011;1651;50.940;6.888;2023-06-24T15:50:32;2.60;;;2.40;;
3278;SDS011;1651;50.940;6.888;2023-06-24T15:53:00;2.80;;;2.60;;
3278;SDS011;1651;50.940;6.888;2023-06-24T15:55:32;6.10;;;2.87;;
3278;SDS011;1651;50.940;6.888;2023-06-24T15:58:01;3.43;;;2.27;;
3278;SDS011;1651;50.940;6.888;2023-06-24T16:00:27;2.73;;;2.23;;
3278;SDS011;1651;50.940;6.888;2023-06-24T16:02:53;2.97;;;2.67;;
3278;SDS011;1651;50.940;6.888;2023-06-24T16:05:21;3.77;;;2.53;;
3278;SDS011;1651;50.940;6.888;2023-06-24T16:07:47;3.47;;;2.90;;
3278;SDS011;1651;50.940;6.888;2023-06-24T16:10:13;3.63;;;2.50;;
3278;SDS011;1651;50.940;6.888;2023-06-24T16:12:39;2.83;;;2.53;;
3278;SDS011;1651;50.940;6.888;2023-06-24T16:15:10;3.50;;;2.77;;
3278;SDS011;1651;50.940;6.888;2023-06-24T16:17:36;3.30;;;2.77;;
3278;SDS011;1651;50.940;6.888;2023-06-24T16:20:02;2.47;;;2.27;;
3278;SDS011;1651;50.940;6.888;2023-06-24T16:22:28;3.57;;;3.27;;
3278;SDS011;1651;50.940;6.888;2023-06-24T16:24:57;2.60;;;2.10;;
3278;SDS011;1651;50.940;6.888;2023-06-24T16:27:23;3.00;;;2.70;;
3278;SDS011;1651;50.940;6.888;2023-06-24T16:29:51;3.10;;;2.80;;
3278;SDS011;1651;50.940;6.888;2023-06-24T16:32:20;4.20;;;2.77;;
3278;SDS011;1651;50.940;6.888;2023-06-24T16:34:46;2.37;;;2.17;;
3278;SDS011;1651;50.940;6.888;2023-06-24T16:37:12;3.60;;;2.20;;
3278;SDS011;1651;50.940;6.888;2023-06-24T16:39:38;2.40;;;2.17;;
3278;SDS011;1651;50.940;6.888;2023-06-24T16:42:04;5.07;;;3.07;;
3278;SDS011;1651;50.940;6.888;2023-06-24T16:44:30;2.60;;;2.40;;
3278;SDS011;1651;50.940;6.888;2023-06-24T16:46:58;4.30;;;2.17;;
3278;SDS011;1651;50.940;6.888;2023-06-24T16:49:26;2.83;;;2.30;;
3278;SDS011;1651;50.940;6.888;2023-06-24T16:51:56;2.23;;;1.87;;
3278;SDS011;1651;50.940;6.888;2023-06-24T16:54:24;3.47;;;2.90;;
3278;SDS011;1651;50.940;6.888;2023-06-24T16:56:51;2.17;;;1.97;;
3278;SDS011;1651;50.940;6.888;2023-06-24T16:59:17;2.50;;;2.30;;
3278;SDS011;1651;50.940;6.888;2023-06-24T17:01:43;2.40;;;2.10;;
3278;SDS011;1651;50.940;6.888;2023-06-24T17:04:09;2.43;;;2.20;;
3278;SDS011;1651;50.940;6.888;2023-06-24T17:06:38;2.93;;;2.63;;
3278;SDS011;1651;50.940;6.888;2023-06-24T17:09:04;2.30;;;1.93;;
3278;SDS011;1651;50.940;6.888;2023-06-24T17:11:39;3.77;;;2.87;;
3278;SDS011;1651;50.940;6.888;2023-06-24T17:14:18;2.00;;;1.80;;
3278;SDS011;1651;50.940;6.888;2023-06-24T17:16:54;2.70;;;2.40;;
3278;SDS011;1651;50.940;6.888;2023-06-24T17:19:20;3.17;;;2.20;;
3278;SDS011;1651;50.940;6.888;2023-06-24T17:21:49;6.30;;;2.53;;
3278;SDS011;1651;50.940;6.888;2023-06-24T17:24:29;4.80;;;2.30;;
3278;SDS011;1651;50.940;6.888;2023-06-24T17:27:19;2.27;;;1.80;;
3278;SDS011;1651;50.940;6.888;2023-06-24T17:30:00;3.47;;;2.30;;
3278;SDS011;1651;50.940;6.888;2023-06-24T17:32:35;2.73;;;2.40;;
3278;SDS011;1651;50.940;6.888;2023-06-24T17:35:15;3.73;;;2.20;;
3278;SDS011;1651;50.940;6.888;2023-06-24T17:37:51;2.17;;;1.97;;
3278;SDS011;1651;50.940;6.888;2023-06-24T17:40:20;3.43;;;2.20;;
3278;SDS011;1651;50.940;6.888;2023-06-24T17:42:46;3.10;;;2.30;;
3278;SDS011;1651;50.940;6.888;2023-06-24T17:45:12;3.17;;;2.83;;
3278;SDS011;1651;50.940;6.888;2023-06-24T17:47:41;3.80;;;2.33;;
3278;SDS011;1651;50.940;6.888;2023-06-24T17:50:24;2.60;;;2.10;;
3278;SDS011;1651;50.940;6.888;2023-06-24T17:53:26;3.20;;;2.07;;
3278;SDS011;1651;50.940;6.888;2023-06-24T17:55:50;2.90;;;2.00;;
3278;SDS011;1651;50.940;6.888;2023-06-24T17:58:20;3.43;;;2.17;;
3278;SDS011;1651;50.940;6.888;2023-06-24T18:01:07;4.30;;;2.93;;
3278;SDS011;1651;50.940;6.888;2023-06-24T18:03:42;3.07;;;2.43;;
3278;SDS011;1651;50.940;6.888;2023-06-24T18:06:18;2.90;;;2.10;;
3278;SDS011;1651;50.940;6.888;2023-06-24T18:08:56;3.70;;;2.40;;
3278;SDS011;1651;50.940;6.888;2023-06-24T18:11:35;3.27;;;2.60;;
3278;SDS011;1651;50.940;6.888;2023-06-24T18:14:06;3.10;;;2.10;;
3278;SDS011;1651;50.940;6.888;2023-06-24T18:19:25;3.60;;;2.60;;
3278;SDS011;1651;50.940;6.888;2023-06-24T18:22:11;6.37;;;2.07;;
3278;SDS011;1651;50.940;6.888;2023-06-24T18:27:19;10.83;;;2.57;;
3278;SDS011;1651;50.940;6.888;2023-06-24T18:30:10;2.60;;;2.40;;
3278;SDS011;1651;50.940;6.888;2023-06-24T18:32:54;2.50;;;2.30;;
3278;SDS011;1651;50.940;6.888;2023-06-24T18:35:27;3.03;;;2.53;;
3278;SDS011;1651;50.940;6.888;2023-06-24T18:37:56;3.73;;;2.40;;
3278;SDS011;1651;50.940;6.888;2023-06-24T18:41:03;2.67;;;2.40;;
3278;SDS011;1651;50.940;6.888;2023-06-24T18:47:02;2.93;;;2.47;;
3278;SDS011;1651;50.940;6.888;2023-06-24T18:49:40;4.03;;;2.57;;
3278;SDS011;1651;50.940;6.888;2023-06-24T18:55:24;3.43;;;2.43;;
3278;SDS011;1651;50.940;6.888;2023-06-24T19:00:43;3.20;;;2.50;;
3278;SDS011;1651;50.940;6.888;2023-06-24T19:03:15;3.60;;;2.70;;
3278;SDS011;1651;50.940;6.888;2023-06-24T19:09:14;3.30;;;2.67;;
3278;SDS011;1651;50.940;6.888;2023-06-24T19:14:45;6.40;;;3.40;;
3278;SDS011;1651;50.940;6.888;2023-06-24T19:17:17;5.10;;;3.33;;
3278;SDS011;1651;50.940;6.888;2023-06-24T19:20:00;4.93;;;3.57;;
3278;SDS011;1651;50.940;6.888;2023-06-24T19:22:34;3.80;;;2.87;;
3278;SDS011;1651;50.940;6.888;2023-06-24T19:25:14;2.97;;;2.40;;
3278;SDS011;1651;50.940;6.888;2023-06-24T19:33:51;3.30;;;2.93;;
3278;SDS011;1651;50.940;6.888;2023-06-24T19:36:24;3.17;;;2.60;;
3278;SDS011;1651;50.940;6.888;2023-06-24T19:38:50;5.17;;;2.67;;
3278;SDS011;1651;50.940;6.888;2023-06-24T19:41:16;3.40;;;2.27;;
3278;SDS011;1651;50.940;6.888;2023-06-24T19:43:48;3.13;;;2.57;;
3278;SDS011;1651;50.940;6.888;2023-06-24T19:46:15;6.60;;;2.50;;
3278;SDS011;1651;50.940;6.888;2023-06-24T19:48:41;4.90;;;2.70;;
3278;SDS011;1651;50.940;6.888;2023-06-24T19:51:07;5.40;;;2.87;;
3278;SDS011;1651;50.940;6.888;2023-06-24T19:53:33;3.10;;;2.50;;
3278;SDS011;1651;50.940;6.888;2023-06-24T19:55:59;4.80;;;3.10;;
3278;SDS011;1651;50.940;6.888;2023-06-24T19:58:25;3.67;;;3.13;;
3278;SDS011;1651;50.940;6.888;2023-06-24T20:00:51;4.37;;;2.40;;
3278;SDS011;1651;50.940;6.888;2023-06-24T20:03:17;5.50;;;2.60;;
3278;SDS011;1651;50.940;6.888;2023-06-24T20:05:43;4.20;;;2.70;;
3278;SDS011;1651;50.940;6.888;2023-06-24T20:08:09;4.37;;;2.50;;
3278;SDS011;1651;50.940;6.888;2023-06-24T20:10:35;3.60;;;3.30;;
3278;SDS011;1651;50.940;6.888;2023-06-24T20:13:01;3.47;;;2.20;;
3278;SDS011;1651;50.940;6.888;2023-06-24T20:15:27;4.13;;;2.83;;
3278;SDS011;1651;50.940;6.888;2023-06-24T20:17:53;3.70;;;3.00;;
3278;SDS011;1651;50.940;6.888;2023-06-24T20:20:19;3.10;;;2.40;;
3278;SDS011;1651;50.940;6.888;2023-06-24T20:22:45;6.60;;;2.43;;
3278;SDS011;1651;50.940;6.888;2023-06-24T20:25:11;3.07;;;2.77;;
3278;SDS011;1651;50.940;6.888;2023-06-24T20:27:37;4.60;;;2.50;;
3278;SDS011;1651;50.940;6.888;2023-06-24T20:30:03;4.93;;;2.90;;
3278;SDS011;1651;50.940;6.888;2023-06-24T20:32:29;3.40;;;2.73;;
3278;SDS011;1651;50.940;6.888;2023-06-24T20:34:55;4.40;;;2.40;;
3278;SDS011;1651;50.940;6.888;2023-06-24T20:37:21;3.40;;;2.97;;
3278;SDS011;1651;50.940;6.888;2023-06-24T20:39:47;4.40;;;2.73;;
3278;SDS011;1651;50.940;6.888;2023-06-24T20:42:13;3.23;;;2.70;;
3278;SDS011;1651;50.940;6.888;2023-06-24T20:44:39;3.00;;;2.70;;
3278;SDS011;1651;50.940;6.888;2023-06-24T20:47:05;3.90;;;2.90;;
3278;SDS011;1651;50.940;6.888;2023-06-24T20:49:31;3.87;;;2.70;;
3278;SDS011;1651;50.940;6.888;2023-06-24T20:51:57;3.40;;;3.10;;
3278;SDS011;1651;50.940;6.888;2023-06-24T20:54:24;5.27;;;3.00;;
3278;SDS011;1651;50.940;6.888;2023-06-24T20:56:50;4.60;;;2.70;;
3278;SDS011;1651;50.940;6.888;2023-06-24T20:59:16;3.90;;;2.60;;
3278;SDS011;1651;50.940;6.888;2023-06-24T21:01:42;4.00;;;2.87;;
3278;SDS011;1651;50.940;6.888;2023-06-24T21:04:08;4.07;;;3.17;;
3278;SDS011;1651;50.940;6.888;2023-06-24T21:06:35;5.03;;;3.30;;
3278;SDS011;1651;50.940;6.888;2023-06-24T21:09:01;3.73;;;3.30;;
3278;SDS011;1651;50.940;6.888;2023-06-24T21:11:27;5.20;;;3.27;;
3278;SDS011;1651;50.940;6.888;2023-06-24T21:13:54;4.90;;;3.73;;
3278;SDS011;1651;50.940;6.888;2023-06-24T21:16:20;4.63;;;3.50;;
3278;SDS011;1651;50.940;6.888;2023-06-24T21:18:46;3.90;;;3.33;;
3278;SDS011;1651;50.940;6.888;2023-06-24T21:21:12;5.03;;;3.50;;
3278;SDS011;1651;50.940;6.888;2023-06-24T21:23:39;5.00;;;3.53;;
3278;SDS011;1651;50.940;6.888;2023-06-24T21:26:05;4.93;;;3.43;;
3278;SDS011;1651;50.940;6.888;2023-06-24T21:28:31;4.10;;;3.27;;
3278;SDS011;1651;50.940;6.888;2023-06-24T21:30:57;4.00;;;3.20;;
3278;SDS011;1651;50.940;6.888;2023-06-24T21:33:23;7.30;;;3.50;;
3278;SDS011;1651;50.940;6.888;2023-06-24T21:35:49;6.00;;;3.43;;
3278;SDS011;1651;50.940;6.888;2023-06-24T21:38:15;4.90;;;3.70;;
3278;SDS011;1651;50.940;6.888;2023-06-24T21:40:41;3.50;;;3.20;;
3278;SDS011;1651;50.940;6.888;2023-06-24T21:43:07;4.03;;;3.63;;
3278;SDS011;1651;50.940;6.888;2023-06-24T21:45:35;5.13;;;3.90;;
3278;SDS011;1651;50.940;6.888;2023-06-24T21:48:01;4.60;;;3.03;;
3278;SDS011;1651;50.940;6.888;2023-06-24T21:50:37;5.17;;;3.07;;
3278;SDS011;1651;50.940;6.888;2023-06-24T21:53:03;8.47;;;3.67;;
3278;SDS011;1651;50.940;6.888;2023-06-24T21:55:30;5.73;;;3.90;;
3278;SDS011;1651;50.940;6.888;2023-06-24T21:57:56;8.13;;;4.77;;
3278;SDS011;1651;50.940;6.888;2023-06-24T22:00:24;6.70;;;3.93;;
3278;SDS011;1651;50.940;6.888;2023-06-24T22:02:51;7.20;;;4.20;;
3278;SDS011;1651;50.940;6.888;2023-06-24T22:05:17;6.67;;;3.90;;
3278;SDS011;1651;50.940;6.888;2023-06-24T22:07:44;6.93;;;4.10;;
3278;SDS011;1651;50.940;6.888;2023-06-24T22:10:10;6.80;;;4.37;;
3278;SDS011;1651;50.940;6.888;2023-06-24T22:12:36;8.23;;;3.93;;
3278;SDS011;1651;50.940;6.888;2023-06-24T22:15:05;4.77;;;3.20;;
3278;SDS011;1651;50.940;6.888;2023-06-24T22:17:31;7.13;;;3.43;;
3278;SDS011;1651;50.940;6.888;2023-06-24T22:19:57;7.17;;;3.90;;
3278;SDS011;1651;50.940;6.888;2023-06-24T22:22:23;5.60;;;3.40;;
3278;SDS011;1651;50.940;6.888;2023-06-24T22:24:49;6.17;;;3.33;;
3278;SDS011;1651;50.940;6.888;2023-06-24T22:27:15;5.23;;;3.43;;
3278;SDS011;1651;50.940;6.888;2023-06-24T22:29:41;6.47;;;3.50;;
3278;SDS011;1651;50.940;6.888;2023-06-24T22:32:07;5.73;;;3.07;;
3278;SDS011;1651;50.940;6.888;2023-06-24T22:34:34;3.90;;;3.23;;
3278;SDS011;1651;50.940;6.888;2023-06-24T22:37:00;3.53;;;3.17;;
3278;SDS011;1651;50.940;6.888;2023-06-24T22:39:26;3.37;;;3.07;;
3278;SDS011;1651;50.940;6.888;2023-06-24T22:41:54;5.07;;;2.87;;
3278;SDS011;1651;50.940;6.888;2023-06-24T22:44:20;3.90;;;2.80;;
3278;SDS011;1651;50.940;6.888;2023-06-24T22:46:46;8.40;;;3.27;;
3278;SDS011;1651;50.940;6.888;2023-06-24T22:49:12;7.60;;;3.80;;
3278;SDS011;1651;50.940;6.888;2023-06-24T22:51:38;3.10;;;2.80;;
3278;SDS011;1651;50.940;6.888;2023-06-24T22:54:04;5.63;;;3.47;;
3278;SDS011;1651;50.940;6.888;2023-06-24T22:56:29;6.63;;;3.50;;
3278;SDS011;1651;50.940;6.888;2023-06-24T22:58:59;4.37;;;3.97;;
3278;SDS011;1651;50.940;6.888;2023-06-24T23:01:25;4.60;;;3.73;;
3278;SDS011;1651;50.940;6.888;2023-06-24T23:03:51;5.33;;;3.57;;
3278;SDS011;1651;50.940;6.888;2023-06-24T23:06:18;4.73;;;3.57;;
3278;SDS011;1651;50.940;6.888;2023-06-24T23:08:44;4.00;;;3.13;;
3278;SDS011;1651;50.940;6.888;2023-06-24T23:11:10;9.23;;;4.23;;
3278;SDS011;1651;50.940;6.888;2023-06-24T23:13:37;4.60;;;3.33;;
3278;SDS011;1651;50.940;6.888;2023-06-24T23:16:04;8.23;;;3.90;;
3278;SDS011;1651;50.940;6.888;2023-06-24T23:18:30;3.97;;;3.37;;
3278;SDS011;1651;50.940;6.888;2023-06-24T23:20:57;4.23;;;3.30;;
3278;SDS011;1651;50.940;6.888;2023-06-24T23:23:23;4.80;;;3.43;;
3278;SDS011;1651;50.940;6.888;2023-06-24T23:25:50;3.20;;;2.90;;
3278;SDS011;1651;50.940;6.888;2023-06-24T23:28:20;4.13;;;3.17;;
3278;SDS011;1651;50.940;6.888;2023-06-24T23:30:47;5.30;;;3.33;;
3278;SDS011;1651;50.940;6.888;2023-06-24T23:33:13;6.80;;;3.27;;
3278;SDS011;1651;50.940;6.888;2023-06-24T23:35:42;4.50;;;2.60;;
3278;SDS011;1651;50.940;6.888;2023-06-24T23:38:08;4.50;;;3.07;;
3278;SDS011;1651;50.940;6.888;2023-06-24T23:40:34;4.00;;;3.17;;
3278;SDS011;1651;50.940;6.888;2023-06-24T23:43:01;3.97;;;3.57;;
3278;SDS011;1651;50.940;6.888;2023-06-24T23:45:28;3.50;;;2.53;;
3278;SDS011;1651;50.940;6.888;2023-06-24T23:47:54;4.40;;;3.40;;
3278;SDS011;1651;50.940;6.888;2023-06-24T23:50:20;4.10;;;3.00;;
3278;SDS011;1651;50.940;6.888;2023-06-24T23:52:46;4.83;;;4.03;;
3278;SDS011;1651;50.940;6.888;2023-06-24T23:55:12;3.80;;;3.20;;
3278;SDS011;1651;50.940;6.888;2023-06-24T23:57:38;4.20;;;3.10;;
